sensor_id;sensor_type;location;lat;lon;timestamp;temperature;humidity
20070;DHT22;10195;50.868;4.382;2023-12-04T00:28:15;3.90;99.90
20070;DHT22;10195;50.868;4.382;2023-12-04T00:30:41;3.90;99.90
20070;DHT22;10195;50.868;4.382;2023-12-04T00:33:07;3.90;99.90
20070;DHT22;10195;50.868;4.382;2023-12-04T00:35:32;3.80;99.90
20070;DHT22;10195;50.868;4.382;2023-12-04T00:37:58;3.80;99.90
20070;DHT22;10195;50.868;4.382;2023-12-04T00:40:24;3.90;99.90
20070;DHT22;10195;50.868;4.382;2023-12-04T00:42:50;3.90;99.90
20070;DHT22;10195;50.868;4.382;2023-12-04T00:45:16;3.90;99.90
20070;DHT22;10195;50.868;4.382;2023-12-04T00:47:41;3.80;99.90
20070;DHT22;10195;50.868;4.382;2023-12-04T00:50:07;3.80;99.90
20070;DHT22;10195;50.868;4.382;2023-12-04T00:52:33;3.90;99.90
20070;DHT22;10195;50.868;4.382;2023-12-04T00:54:58;3.90;99.90
20070;DHT22;10195;50.868;4.382;2023-12-04T00:57:24;3.90;99.90
20070;DHT22;10195;50.868;4.382;2023-12-04T00:59:49;4.00;99.90
20070;DHT22;10195;50.868;4.382;2023-12-04T01:02:15;3.90;99.90
20070;DHT22;10195;50.868;4.382;2023-12-04T01:04:41;4.00;99.90
20070;DHT22;10195;50.868;4.382;2023-12-04T01:07:09;4.00;99.90
20070;DHT22;10195;50.868;4.382;2023-12-04T01:09:36;4.00;99.90
20070;DHT22;10195;50.868;4.382;2023-12-04T01:12:02;3.90;99.90
20070;DHT22;10195;50.868;4.382;2023-12-04T01:14:28;3.80;99.90
20070;DHT22;10195;50.868;4.382;2023-12-04T01:16:53;3.80;99.90
20070;DHT22;10195;50.868;4.382;2023-12-04T01:19:19;3.90;99.90
20070;DHT22;10195;50.868;4.382;2023-12-04T01:21:45;3.90;99.90
20070;DHT22;10195;50.868;4.382;2023-12-04T01:24:10;4.10;99.90
20070;DHT22;10195;50.868;4.382;2023-12-04T01:26:36;4.00;99.90
20070;DHT22;10195;50.868;4.382;2023-12-04T01:29:02;3.90;99.90
20070;DHT22;10195;50.868;4.382;2023-12-04T01:31:27;3.90;99.90
20070;DHT22;10195;50.868;4.382;2023-12-04T01:33:53;3.90;99.90
20070;DHT22;10195;50.868;4.382;2023-12-04T01:36:19;3.80;99.90
20070;DHT22;10195;50.868;4.382;2023-12-04T01:38:44;3.80;99.90
20070;DHT22;10195;50.868;4.382;2023-12-04T01:41:10;3.90;99.90
20070;DHT22;10195;50.868;4.382;2023-12-04T01:43:35;3.90;99.90
20070;DHT22;10195;50.868;4.382;2023-12-04T01:46:01;3.90;99.90
20070;DHT22;10195;50.868;4.382;2023-12-04T01:48:28;3.80;99.90
20070;DHT22;10195;50.868;4.382;2023-12-04T01:50:54;3.90;99.90
20070;DHT22;10195;50.868;4.382;2023-12-04T01:53:23;3.90;99.90
20070;DHT22;10195;50.868;4.382;2023-12-04T01:55:49;3.90;99.90
20070;DHT22;10195;50.868;4.382;2023-12-04T01:58:15;4.00;99.90
20070;DHT22;10195;50.868;4.382;2023-12-04T02:00:44;4.20;99.90
20070;DHT22;10195;50.868;4.382;2023-12-04T02:03:16;4.10;99.90
20070;DHT22;10195;50.868;4.382;2023-12-04T02:05:44;4.20;99.90
20070;DHT22;10195;50.868;4.382;2023-12-04T02:08:10;3.90;99.90
20070;DHT22;10195;50.868;4.382;2023-12-04T02:10:36;4.00;99.90
20070;DHT22;10195;50.868;4.382;2023-12-04T02:13:02;4.10;99.90
20070;DHT22;10195;50.868;4.382;2023-12-04T02:15:28;4.10;99.90
20070;DHT22;10195;50.868;4.382;2023-12-04T02:17:54;4.00;99.90
20070;DHT22;10195;50.868;4.382;2023-12-04T02:20:20;4.10;99.90
20070;DHT22;10195;50.868;4.382;2023-12-04T02:22:46;4.10;99.90
20070;DHT22;10195;50.868;4.382;2023-12-04T02:25:12;4.00;99.90
20070;DHT22;10195;50.868;4.382;2023-12-04T02:28:22;4.00;99.90
20070;DHT22;10195;50.868;4.382;2023-12-04T02:30:30;3.90;99.90
20070;DHT22;10195;50.868;4.382;2023-12-04T02:32:56;3.90;99.90
20070;DHT22;10195;50.868;4.382;2023-12-04T02:35:26;3.80;99.90
20070;DHT22;10195;50.868;4.382;2023-12-04T02:37:53;3.80;99.90
20070;DHT22;10195;50.868;4.382;2023-12-04T02:40:19;3.90;99.90
20070;DHT22;10195;50.868;4.382;2023-12-04T02:42:45;4.00;99.90
20070;DHT22;10195;50.868;4.382;2023-12-04T02:45:11;3.90;99.90
20070;DHT22;10195;50.868;4.382;2023-12-04T02:47:37;3.90;99.90
20070;DHT22;10195;50.868;4.382;2023-12-04T02:50:03;3.80;99.90
20070;DHT22;10195;50.868;4.382;2023-12-04T02:52:29;3.80;99.90
20070;DHT22;10195;50.868;4.382;2023-12-04T02:54:54;3.80;99.90
20070;DHT22;10195;50.868;4.382;2023-12-04T02:57:20;3.80;99.90
20070;DHT22;10195;50.868;4.382;2023-12-04T02:59:47;3.70;99.90
20070;DHT22;10195;50.868;4.382;2023-12-04T03:02:12;3.70;99.90
20070;DHT22;10195;50.868;4.382;2023-12-04T03:04:38;3.80;99.90
20070;DHT22;10195;50.868;4.382;2023-12-04T03:07:04;3.70;99.90
20070;DHT22;10195;50.868;4.382;2023-12-04T03:09:29;3.70;99.90
20070;DHT22;10195;50.868;4.382;2023-12-04T03:11:55;3.70;99.90
20070;DHT22;10195;50.868;4.382;2023-12-04T03:14:20;3.70;99.90
20070;DHT22;10195;50.868;4.382;2023-12-04T03:16:46;3.70;99.90
20070;DHT22;10195;50.868;4.382;2023-12-04T03:19:12;3.70;99.90
20070;DHT22;10195;50.868;4.382;2023-12-04T03:21:37;3.70;99.90
20070;DHT22;10195;50.868;4.382;2023-12-04T03:24:03;3.70;99.90
20070;DHT22;10195;50.868;4.382;2023-12-04T03:26:29;3.80;99.90
20070;DHT22;10195;50.868;4.382;2023-12-04T03:28:54;4.00;99.90
20070;DHT22;10195;50.868;4.382;2023-12-04T03:31:21;3.80;99.90
20070;DHT22;10195;50.868;4.382;2023-12-04T03:33:47;3.80;99.90
20070;DHT22;10195;50.868;4.382;2023-12-04T03:36:12;3.70;99.90
20070;DHT22;10195;50.868;4.382;2023-12-04T03:38:38;3.80;99.90
20070;DHT22;10195;50.868;4.382;2023-12-04T03:41:04;3.80;99.90
20070;DHT22;10195;50.868;4.382;2023-12-04T03:43:29;3.80;99.90
20070;DHT22;10195;50.868;4.382;2023-12-04T03:45:55;3.90;99.90
20070;DHT22;10195;50.868;4.382;2023-12-04T03:48:20;3.90;99.90
20070;DHT22;10195;50.868;4.382;2023-12-04T03:50:46;3.90;99.90
20070;DHT22;10195;50.868;4.382;2023-12-04T03:53:12;4.00;99.90
20070;DHT22;10195;50.868;4.382;2023-12-04T03:55:38;3.90;99.90
20070;DHT22;10195;50.868;4.382;2023-12-04T03:58:03;4.00;99.90
20070;DHT22;10195;50.868;4.382;2023-12-04T04:00:29;3.90;99.90
20070;DHT22;10195;50.868;4.382;2023-12-04T04:02:54;3.80;99.90
20070;DHT22;10195;50.868;4.382;2023-12-04T04:05:20;3.70;99.90
20070;DHT22;10195;50.868;4.382;2023-12-04T04:07:46;3.80;99.90
20070;DHT22;10195;50.868;4.382;2023-12-04T04:10:11;3.90;99.90
20070;DHT22;10195;50.868;4.382;2023-12-04T04:12:37;3.80;99.90
20070;DHT22;10195;50.868;4.382;2023-12-04T04:15:03;3.70;99.90
20070;DHT22;10195;50.868;4.382;2023-12-04T04:17:29;3.70;99.90
20070;DHT22;10195;50.868;4.382;2023-12-04T04:19:55;3.70;99.90
20070;DHT22;10195;50.868;4.382;2023-12-04T04:22:22;3.90;99.90
20070;DHT22;10195;50.868;4.382;2023-12-04T04:24:48;3.80;99.90
20070;DHT22;10195;50.868;4.382;2023-12-04T04:27:17;3.90;99.90
20070;DHT22;10195;50.868;4.382;2023-12-04T04:29:43;3.90;99.90
20070;DHT22;10195;50.868;4.382;2023-12-04T04:32:09;3.90;99.90
20070;DHT22;10195;50.868;4.382;2023-12-04T04:34:34;3.90;99.90
20070;DHT22;10195;50.868;4.382;2023-12-04T04:37:00;4.00;99.90
20070;DHT22;10195;50.868;4.382;2023-12-04T04:39:25;4.00;99.90
20070;DHT22;10195;50.868;4.382;2023-12-04T04:41:51;4.10;99.90
20070;DHT22;10195;50.868;4.382;2023-12-04T04:44:17;4.00;99.90
20070;DHT22;10195;50.868;4.382;2023-12-04T04:46:42;4.00;99.90
20070;DHT22;10195;50.868;4.382;2023-12-04T04:49:08;4.00;99.90
20070;DHT22;10195;50.868;4.382;2023-12-04T04:51:34;3.90;99.90
20070;DHT22;10195;50.868;4.382;2023-12-04T04:54:02;4.00;99.90
20070;DHT22;10195;50.868;4.382;2023-12-04T04:56:28;4.00;99.90
20070;DHT22;10195;50.868;4.382;2023-12-04T04:58:55;4.00;99.90
20070;DHT22;10195;50.868;4.382;2023-12-04T05:01:20;4.10;99.90
20070;DHT22;10195;50.868;4.382;2023-12-04T05:03:46;4.20;99.90
20070;DHT22;10195;50.868;4.382;2023-12-04T05:06:12;4.10;99.90
20070;DHT22;10195;50.868;4.382;2023-12-04T05:08:37;4.00;99.90
20070;DHT22;10195;50.868;4.382;2023-12-04T05:11:04;4.00;99.90
20070;DHT22;10195;50.868;4.382;2023-12-04T05:13:30;4.10;99.90
20070;DHT22;10195;50.868;4.382;2023-12-04T05:15:56;4.20;99.90
20070;DHT22;10195;50.868;4.382;2023-12-04T05:18:21;4.20;99.90
20070;DHT22;10195;50.868;4.382;2023-12-04T05:20:47;4.30;99.90
20070;DHT22;10195;50.868;4.382;2023-12-04T05:23:12;4.40;99.90
20070;DHT22;10195;50.868;4.382;2023-12-04T05:25:38;4.40;99.90
20070;DHT22;10195;50.868;4.382;2023-12-04T05:28:04;4.50;99.90
20070;DHT22;10195;50.868;4.382;2023-12-04T05:30:30;4.40;99.90
20070;DHT22;10195;50.868;4.382;2023-12-04T05:32:56;4.40;99.90
20070;DHT22;10195;50.868;4.382;2023-12-04T05:35:22;4.20;99.90
20070;DHT22;10195;50.868;4.382;2023-12-04T05:37:48;4.30;99.90
20070;DHT22;10195;50.868;4.382;2023-12-04T05:40:13;4.20;99.90
20070;DHT22;10195;50.868;4.382;2023-12-04T05:42:39;4.30;99.90
20070;DHT22;10195;50.868;4.382;2023-12-04T05:45:05;4.20;99.90
20070;DHT22;10195;50.868;4.382;2023-12-04T05:47:32;4.30;99.90
20070;DHT22;10195;50.868;4.382;2023-12-04T05:49:58;4.40;99.90
20070;DHT22;10195;50.868;4.382;2023-12-04T05:52:23;4.30;99.90
20070;DHT22;10195;50.868;4.382;2023-12-04T05:54:49;4.40;99.90
20070;DHT22;10195;50.868;4.382;2023-12-04T05:57:15;4.40;99.90
20070;DHT22;10195;50.868;4.382;2023-12-04T05:59:41;4.40;99.90
20070;DHT22;10195;50.868;4.382;2023-12-04T06:02:07;4.30;99.90
20070;DHT22;10195;50.868;4.382;2023-12-04T06:04:33;4.30;99.90
20070;DHT22;10195;50.868;4.382;2023-12-04T06:06:58;4.30;99.90
20070;DHT22;10195;50.868;4.382;2023-12-04T06:09:24;4.30;99.90
20070;DHT22;10195;50.868;4.382;2023-12-04T06:11:50;4.40;99.90
20070;DHT22;10195;50.868;4.382;2023-12-04T06:14:16;4.30;99.90
20070;DHT22;10195;50.868;4.382;2023-12-04T06:16:41;4.30;99.90
20070;DHT22;10195;50.868;4.382;2023-12-04T06:19:07;4.10;99.90
20070;DHT22;10195;50.868;4.382;2023-12-04T06:21:33;4.20;99.90
20070;DHT22;10195;50.868;4.382;2023-12-04T06:23:59;4.20;99.90
20070;DHT22;10195;50.868;4.382;2023-12-04T06:26:29;4.20;99.90
20070;DHT22;10195;50.868;4.382;2023-12-04T06:28:57;4.30;99.90
20070;DHT22;10195;50.868;4.382;2023-12-04T06:31:22;4.30;99.90
20070;DHT22;10195;50.868;4.382;2023-12-04T06:33:48;4.30;99.90
20070;DHT22;10195;50.868;4.382;2023-12-04T06:36:15;4.20;99.90
20070;DHT22;10195;50.868;4.382;2023-12-04T06:38:43;4.20;99.90
20070;DHT22;10195;50.868;4.382;2023-12-04T06:41:12;4.20;99.90
20070;DHT22;10195;50.868;4.382;2023-12-04T06:43:38;4.30;99.90
20070;DHT22;10195;50.868;4.382;2023-12-04T06:46:05;4.30;99.90
20070;DHT22;10195;50.868;4.382;2023-12-04T06:48:31;4.20;99.90
20070;DHT22;10195;50.868;4.382;2023-12-04T06:50:57;4.30;99.90
20070;DHT22;10195;50.868;4.382;2023-12-04T06:53:23;4.30;99.90
20070;DHT22;10195;50.868;4.382;2023-12-04T06:55:49;4.30;99.90
20070;DHT22;10195;50.868;4.382;2023-12-04T06:58:14;4.30;99.90
20070;DHT22;10195;50.868;4.382;2023-12-04T07:00:40;4.40;99.90
20070;DHT22;10195;50.868;4.382;2023-12-04T07:03:06;4.40;99.90
20070;DHT22;10195;50.868;4.382;2023-12-04T07:05:32;4.30;99.90
20070;DHT22;10195;50.868;4.382;2023-12-04T07:07:57;4.30;99.90
20070;DHT22;10195;50.868;4.382;2023-12-04T07:10:23;4.30;99.90
20070;DHT22;10195;50.868;4.382;2023-12-04T07:12:49;4.30;99.90
20070;DHT22;10195;50.868;4.382;2023-12-04T07:15:15;4.30;99.90
20070;DHT22;10195;50.868;4.382;2023-12-04T07:17:41;4.30;99.90
20070;DHT22;10195;50.868;4.382;2023-12-04T07:20:06;4.20;99.90
20070;DHT22;10195;50.868;4.382;2023-12-04T07:22:33;4.30;99.90
20070;DHT22;10195;50.868;4.382;2023-12-04T07:24:59;4.30;99.90
20070;DHT22;10195;50.868;4.382;2023-12-04T07:27:25;4.30;99.90
20070;DHT22;10195;50.868;4.382;2023-12-04T07:29:51;4.30;99.90
20070;DHT22;10195;50.868;4.382;2023-12-04T07:32:17;4.30;99.90
20070;DHT22;10195;50.868;4.382;2023-12-04T07:34:43;4.40;99.90
20070;DHT22;10195;50.868;4.382;2023-12-04T07:37:09;4.30;99.90
20070;DHT22;10195;50.868;4.382;2023-12-04T07:39:35;4.30;99.90
20070;DHT22;10195;50.868;4.382;2023-12-04T07:42:00;4.30;99.90
20070;DHT22;10195;50.868;4.382;2023-12-04T07:44:26;4.20;99.90
20070;DHT22;10195;50.868;4.382;2023-12-04T07:46:52;4.20;99.90
20070;DHT22;10195;50.868;4.382;2023-12-04T07:49:17;4.20;99.90
20070;DHT22;10195;50.868;4.382;2023-12-04T07:51:43;4.30;99.90
20070;DHT22;10195;50.868;4.382;2023-12-04T07:54:09;4.20;99.90
20070;DHT22;10195;50.868;4.382;2023-12-04T07:56:34;4.20;99.90
20070;DHT22;10195;50.868;4.382;2023-12-04T07:59:00;4.30;99.90
20070;DHT22;10195;50.868;4.382;2023-12-04T08:01:25;4.40;99.90
20070;DHT22;10195;50.868;4.382;2023-12-04T08:03:51;4.30;99.90
20070;DHT22;10195;50.868;4.382;2023-12-04T08:06:17;4.30;99.90
20070;DHT22;10195;50.868;4.382;2023-12-04T08:08:44;4.20;99.90
20070;DHT22;10195;50.868;4.382;2023-12-04T08:11:10;4.30;99.90
20070;DHT22;10195;50.868;4.382;2023-12-04T08:13:37;4.30;99.90
20070;DHT22;10195;50.868;4.382;2023-12-04T08:16:03;4.20;99.90
20070;DHT22;10195;50.868;4.382;2023-12-04T08:18:29;4.20;99.90
20070;DHT22;10195;50.868;4.382;2023-12-04T08:20:55;4.20;99.90
20070;DHT22;10195;50.868;4.382;2023-12-04T08:23:21;4.20;99.90
20070;DHT22;10195;50.868;4.382;2023-12-04T08:25:46;4.20;99.90
20070;DHT22;10195;50.868;4.382;2023-12-04T08:28:12;4.30;99.90
20070;DHT22;10195;50.868;4.382;2023-12-04T08:30:38;4.30;99.90
20070;DHT22;10195;50.868;4.382;2023-12-04T08:33:04;4.20;99.90
20070;DHT22;10195;50.868;4.382;2023-12-04T08:35:30;4.20;99.90
20070;DHT22;10195;50.868;4.382;2023-12-04T08:37:55;4.30;99.90
20070;DHT22;10195;50.868;4.382;2023-12-04T08:40:21;4.30;99.90
20070;DHT22;10195;50.868;4.382;2023-12-04T08:42:47;4.10;99.90
20070;DHT22;10195;50.868;4.382;2023-12-04T08:45:13;4.10;99.90
20070;DHT22;10195;50.868;4.382;2023-12-04T08:47:38;4.10;99.90
20070;DHT22;10195;50.868;4.382;2023-12-04T08:50:05;4.10;99.90
20070;DHT22;10195;50.868;4.382;2023-12-04T08:52:30;4.10;99.90
20070;DHT22;10195;50.868;4.382;2023-12-04T08:54:56;4.10;99.90
20070;DHT22;10195;50.868;4.382;2023-12-04T08:57:22;4.10;99.90
20070;DHT22;10195;50.868;4.382;2023-12-04T08:59:47;4.10;99.90
20070;DHT22;10195;50.868;4.382;2023-12-04T09:02:13;4.10;99.90
20070;DHT22;10195;50.868;4.382;2023-12-04T09:04:39;4.10;99.90
20070;DHT22;10195;50.868;4.382;2023-12-04T09:07:04;4.20;99.90
20070;DHT22;10195;50.868;4.382;2023-12-04T09:09:30;4.10;99.90
20070;DHT22;10195;50.868;4.382;2023-12-04T09:11:56;4.10;99.90
20070;DHT22;10195;50.868;4.382;2023-12-04T09:14:22;4.00;99.90
20070;DHT22;10195;50.868;4.382;2023-12-04T09:16:48;4.10;99.90
20070;DHT22;10195;50.868;4.382;2023-12-04T09:19:13;4.10;99.90
20070;DHT22;10195;50.868;4.382;2023-12-04T09:21:39;4.10;99.90
20070;DHT22;10195;50.868;4.382;2023-12-04T09:24:05;4.10;99.90
20070;DHT22;10195;50.868;4.382;2023-12-04T09:26:30;4.00;99.90
20070;DHT22;10195;50.868;4.382;2023-12-04T09:28:56;4.10;99.90
20070;DHT22;10195;50.868;4.382;2023-12-04T09:31:25;4.20;99.90
20070;DHT22;10195;50.868;4.382;2023-12-04T09:33:50;4.30;99.90
20070;DHT22;10195;50.868;4.382;2023-12-04T09:36:16;4.30;99.90
20070;DHT22;10195;50.868;4.382;2023-12-04T09:38:43;4.20;99.90
20070;DHT22;10195;50.868;4.382;2023-12-04T09:41:10;4.10;99.90
20070;DHT22;10195;50.868;4.382;2023-12-04T09:43:37;4.10;99.90
20070;DHT22;10195;50.868;4.382;2023-12-04T09:46:04;4.10;99.90
20070;DHT22;10195;50.868;4.382;2023-12-04T09:48:31;4.00;99.90
20070;DHT22;10195;50.868;4.382;2023-12-04T09:50:57;3.90;99.90
20070;DHT22;10195;50.868;4.382;2023-12-04T09:53:24;3.90;99.90
20070;DHT22;10195;50.868;4.382;2023-12-04T09:55:51;3.80;99.90
20070;DHT22;10195;50.868;4.382;2023-12-04T09:58:19;3.70;99.90
20070;DHT22;10195;50.868;4.382;2023-12-04T10:00:46;3.60;99.90
20070;DHT22;10195;50.868;4.382;2023-12-04T10:03:12;3.60;99.90
20070;DHT22;10195;50.868;4.382;2023-12-04T10:05:43;3.70;99.90
20070;DHT22;10195;50.868;4.382;2023-12-04T10:08:11;3.60;99.90
20070;DHT22;10195;50.868;4.382;2023-12-04T10:10:36;3.40;99.90
20070;DHT22;10195;50.868;4.382;2023-12-04T10:13:02;3.50;99.90
20070;DHT22;10195;50.868;4.382;2023-12-04T10:15:28;3.30;99.90
20070;DHT22;10195;50.868;4.382;2023-12-04T10:17:54;3.20;99.90
20070;DHT22;10195;50.868;4.382;2023-12-04T10:20:20;3.30;99.90
20070;DHT22;10195;50.868;4.382;2023-12-04T10:23:00;3.20;99.90
20070;DHT22;10195;50.868;4.382;2023-12-04T10:25:30;3.20;99.90
20070;DHT22;10195;50.868;4.382;2023-12-04T10:28:10;3.20;99.90
20070;DHT22;10195;50.868;4.382;2023-12-04T10:30:36;3.30;99.90
20070;DHT22;10195;50.868;4.382;2023-12-04T10:33:06;3.20;99.90
20070;DHT22;10195;50.868;4.382;2023-12-04T10:35:34;3.20;99.90
20070;DHT22;10195;50.868;4.382;2023-12-04T10:38:04;3.20;99.90
20070;DHT22;10195;50.868;4.382;2023-12-04T10:40:31;3.20;99.90
20070;DHT22;10195;50.868;4.382;2023-12-04T10:43:16;3.20;99.90
20070;DHT22;10195;50.868;4.382;2023-12-04T10:45:44;3.20;99.90
20070;DHT22;10195;50.868;4.382;2023-12-04T10:48:11;3.30;99.90
20070;DHT22;10195;50.868;4.382;2023-12-04T10:50:38;3.40;99.90
20070;DHT22;10195;50.868;4.382;2023-12-04T10:53:05;3.40;99.90
20070;DHT22;10195;50.868;4.382;2023-12-04T10:55:31;3.50;99.90
20070;DHT22;10195;50.868;4.382;2023-12-04T10:57:58;3.50;99.90
20070;DHT22;10195;50.868;4.382;2023-12-04T11:00:25;3.60;99.90
20070;DHT22;10195;50.868;4.382;2023-12-04T11:02:53;3.60;99.90
20070;DHT22;10195;50.868;4.382;2023-12-04T11:05:20;3.80;99.90
20070;DHT22;10195;50.868;4.382;2023-12-04T11:07:51;3.90;99.90
20070;DHT22;10195;50.868;4.382;2023-12-04T11:10:22;3.90;99.90
20070;DHT22;10195;50.868;4.382;2023-12-04T11:12:56;3.90;99.90
20070;DHT22;10195;50.868;4.382;2023-12-04T11:15:23;4.10;99.90
20070;DHT22;10195;50.868;4.382;2023-12-04T11:17:54;4.20;99.90
20070;DHT22;10195;50.868;4.382;2023-12-04T11:20:22;4.30;99.90
20070;DHT22;10195;50.868;4.382;2023-12-04T11:22:50;4.40;99.90
20070;DHT22;10195;50.868;4.382;2023-12-04T11:25:17;4.40;99.90
20070;DHT22;10195;50.868;4.382;2023-12-04T11:27:43;4.30;99.90
20070;DHT22;10195;50.868;4.382;2023-12-04T11:30:10;4.30;99.90
20070;DHT22;10195;50.868;4.382;2023-12-04T11:32:48;4.30;99.90
20070;DHT22;10195;50.868;4.382;2023-12-04T11:35:18;4.30;99.90
20070;DHT22;10195;50.868;4.382;2023-12-04T11:37:44;4.20;99.90
20070;DHT22;10195;50.868;4.382;2023-12-04T11:40:14;4.20;99.90
20070;DHT22;10195;50.868;4.382;2023-12-04T11:42:41;4.20;99.90
20070;DHT22;10195;50.868;4.382;2023-12-04T11:45:08;4.20;99.90
20070;DHT22;10195;50.868;4.382;2023-12-04T11:50:16;4.10;99.90
20070;DHT22;10195;50.868;4.382;2023-12-04T11:52:42;4.10;99.90
20070;DHT22;10195;50.868;4.382;2023-12-04T11:55:08;4.20;99.90
20070;DHT22;10195;50.868;4.382;2023-12-04T11:57:38;4.40;99.90
20070;DHT22;10195;50.868;4.382;2023-12-04T12:03:08;4.30;99.90
20070;DHT22;10195;50.868;4.382;2023-12-04T12:05:36;4.30;99.90
20070;DHT22;10195;50.868;4.382;2023-12-04T12:08:04;4.30;99.90
20070;DHT22;10195;50.868;4.382;2023-12-04T12:10:31;4.30;99.90
20070;DHT22;10195;50.868;4.382;2023-12-04T12:12:57;4.30;99.90
20070;DHT22;10195;50.868;4.382;2023-12-04T12:15:23;4.30;99.90
20070;DHT22;10195;50.868;4.382;2023-12-04T12:17:49;4.40;99.90
20070;DHT22;10195;50.868;4.382;2023-12-04T12:20:15;4.50;99.90
20070;DHT22;10195;50.868;4.382;2023-12-04T12:22:41;4.40;99.90
20070;DHT22;10195;50.868;4.382;2023-12-04T12:25:10;4.50;99.90
20070;DHT22;10195;50.868;4.382;2023-12-04T12:27:39;4.50;99.90
20070;DHT22;10195;50.868;4.382;2023-12-04T12:30:05;4.50;99.90
20070;DHT22;10195;50.868;4.382;2023-12-04T12:32:32;4.60;99.90
20070;DHT22;10195;50.868;4.382;2023-12-04T12:34:58;4.60;99.90
20070;DHT22;10195;50.868;4.382;2023-12-04T12:37:24;4.70;99.90
20070;DHT22;10195;50.868;4.382;2023-12-04T12:39:51;4.60;99.90
20070;DHT22;10195;50.868;4.382;2023-12-04T12:42:30;4.70;99.90
20070;DHT22;10195;50.868;4.382;2023-12-04T12:45:00;4.70;99.90
20070;DHT22;10195;50.868;4.382;2023-12-04T12:47:26;4.70;99.90
20070;DHT22;10195;50.868;4.382;2023-12-04T12:49:52;4.60;99.90
20070;DHT22;10195;50.868;4.382;2023-12-04T12:52:18;4.60;99.90
20070;DHT22;10195;50.868;4.382;2023-12-04T12:54:45;4.80;99.90
20070;DHT22;10195;50.868;4.382;2023-12-04T12:57:11;4.80;99.90
20070;DHT22;10195;50.868;4.382;2023-12-04T12:59:38;4.70;99.90
20070;DHT22;10195;50.868;4.382;2023-12-04T13:02:05;4.80;99.90
20070;DHT22;10195;50.868;4.382;2023-12-04T13:04:40;4.80;99.90
20070;DHT22;10195;50.868;4.382;2023-12-04T13:07:05;4.80;99.90
20070;DHT22;10195;50.868;4.382;2023-12-04T13:09:33;4.80;99.90
20070;DHT22;10195;50.868;4.382;2023-12-04T13:11:58;4.80;99.90
20070;DHT22;10195;50.868;4.382;2023-12-04T13:14:25;4.80;99.90
20070;DHT22;10195;50.868;4.382;2023-12-04T13:16:51;4.70;99.90
20070;DHT22;10195;50.868;4.382;2023-12-04T13:19:16;4.80;99.90
20070;DHT22;10195;50.868;4.382;2023-12-04T13:21:43;4.80;99.90
20070;DHT22;10195;50.868;4.382;2023-12-04T13:24:10;4.90;99.90
20070;DHT22;10195;50.868;4.382;2023-12-04T13:26:36;4.90;99.90
20070;DHT22;10195;50.868;4.382;2023-12-04T13:29:02;4.60;99.90
20070;DHT22;10195;50.868;4.382;2023-12-04T13:31:27;4.70;99.90
20070;DHT22;10195;50.868;4.382;2023-12-04T13:33:56;4.80;99.90
20070;DHT22;10195;50.868;4.382;2023-12-04T13:36:22;4.90;99.90
20070;DHT22;10195;50.868;4.382;2023-12-04T13:38:51;4.90;99.90
20070;DHT22;10195;50.868;4.382;2023-12-04T13:41:18;4.80;99.90
20070;DHT22;10195;50.868;4.382;2023-12-04T13:44:04;4.80;99.90
20070;DHT22;10195;50.868;4.382;2023-12-04T13:46:30;4.70;99.90
20070;DHT22;10195;50.868;4.382;2023-12-04T13:48:57;4.80;99.90
20070;DHT22;10195;50.868;4.382;2023-12-04T13:51:23;4.80;99.90
20070;DHT22;10195;50.868;4.382;2023-12-04T13:53:49;4.80;99.90
20070;DHT22;10195;50.868;4.382;2023-12-04T13:56:19;4.80;99.90
20070;DHT22;10195;50.868;4.382;2023-12-04T13:59:04;4.80;99.90
20070;DHT22;10195;50.868;4.382;2023-12-04T14:01:31;4.90;99.90
20070;DHT22;10195;50.868;4.382;2023-12-04T14:03:57;4.80;99.90
20070;DHT22;10195;50.868;4.382;2023-12-04T14:06:29;4.80;99.90
20070;DHT22;10195;50.868;4.382;2023-12-04T14:08:56;4.80;99.90
20070;DHT22;10195;50.868;4.382;2023-12-04T14:11:22;4.90;99.90
20070;DHT22;10195;50.868;4.382;2023-12-04T14:13:48;4.90;99.90
20070;DHT22;10195;50.868;4.382;2023-12-04T14:16:14;4.90;99.90
20070;DHT22;10195;50.868;4.382;2023-12-04T14:18:41;4.80;99.90
20070;DHT22;10195;50.868;4.382;2023-12-04T14:21:08;4.90;99.90
20070;DHT22;10195;50.868;4.382;2023-12-04T14:23:34;4.80;99.90
20070;DHT22;10195;50.868;4.382;2023-12-04T14:26:00;4.90;99.90
20070;DHT22;10195;50.868;4.382;2023-12-04T14:28:27;5.00;99.90
20070;DHT22;10195;50.868;4.382;2023-12-04T14:30:53;4.90;99.90
20070;DHT22;10195;50.868;4.382;2023-12-04T14:33:20;4.90;99.90
20070;DHT22;10195;50.868;4.382;2023-12-04T14:35:45;4.80;99.90
20070;DHT22;10195;50.868;4.382;2023-12-04T14:38:11;4.80;99.90
20070;DHT22;10195;50.868;4.382;2023-12-04T14:40:36;4.90;99.90
20070;DHT22;10195;50.868;4.382;2023-12-04T14:43:02;4.90;99.90
20070;DHT22;10195;50.868;4.382;2023-12-04T14:45:28;5.00;99.90
20070;DHT22;10195;50.868;4.382;2023-12-04T14:47:54;5.10;99.90
20070;DHT22;10195;50.868;4.382;2023-12-04T14:50:22;5.20;99.90
20070;DHT22;10195;50.868;4.382;2023-12-04T14:52:49;5.20;99.90
20070;DHT22;10195;50.868;4.382;2023-12-04T14:55:19;5.20;99.90
20070;DHT22;10195;50.868;4.382;2023-12-04T14:57:48;5.10;99.90
20070;DHT22;10195;50.868;4.382;2023-12-04T15:00:43;5.00;99.90
20070;DHT22;10195;50.868;4.382;2023-12-04T15:03:31;5.00;99.90
20070;DHT22;10195;50.868;4.382;2023-12-04T15:06:16;5.00;99.90
20070;DHT22;10195;50.868;4.382;2023-12-04T15:08:41;4.90;99.90
20070;DHT22;10195;50.868;4.382;2023-12-04T15:11:13;5.10;99.90
20070;DHT22;10195;50.868;4.382;2023-12-04T15:13:44;5.10;99.90
20070;DHT22;10195;50.868;4.382;2023-12-04T15:16:21;5.00;99.90
20070;DHT22;10195;50.868;4.382;2023-12-04T15:19:00;5.10;99.90
20070;DHT22;10195;50.868;4.382;2023-12-04T15:21:52;5.00;99.90
20070;DHT22;10195;50.868;4.382;2023-12-04T15:24:20;5.00;99.90
20070;DHT22;10195;50.868;4.382;2023-12-04T15:26:46;5.10;99.90
20070;DHT22;10195;50.868;4.382;2023-12-04T15:29:12;5.10;99.90
20070;DHT22;10195;50.868;4.382;2023-12-04T15:31:37;5.10;99.90
20070;DHT22;10195;50.868;4.382;2023-12-04T15:34:05;5.10;99.90
20070;DHT22;10195;50.868;4.382;2023-12-04T15:36:30;5.10;99.90
20070;DHT22;10195;50.868;4.382;2023-12-04T15:38:56;5.20;99.90
20070;DHT22;10195;50.868;4.382;2023-12-04T15:41:22;5.20;99.90
20070;DHT22;10195;50.868;4.382;2023-12-04T15:43:47;5.10;99.90
20070;DHT22;10195;50.868;4.382;2023-12-04T15:46:15;5.10;99.90
20070;DHT22;10195;50.868;4.382;2023-12-04T15:48:41;5.10;99.90
20070;DHT22;10195;50.868;4.382;2023-12-04T15:51:07;5.20;99.90
20070;DHT22;10195;50.868;4.382;2023-12-04T15:53:32;5.20;99.90
20070;DHT22;10195;50.868;4.382;2023-12-04T15:55:58;5.20;99.90
20070;DHT22;10195;50.868;4.382;2023-12-04T15:58:24;5.20;99.90
20070;DHT22;10195;50.868;4.382;2023-12-04T16:00:49;5.20;99.90
20070;DHT22;10195;50.868;4.382;2023-12-04T16:03:15;5.30;99.90
20070;DHT22;10195;50.868;4.382;2023-12-04T16:05:41;5.20;99.90
20070;DHT22;10195;50.868;4.382;2023-12-04T16:08:07;5.20;99.90
20070;DHT22;10195;50.868;4.382;2023-12-04T16:10:33;5.30;99.90
20070;DHT22;10195;50.868;4.382;2023-12-04T16:13:01;5.40;99.90
20070;DHT22;10195;50.868;4.382;2023-12-04T16:15:27;5.40;99.90